Time;durP1;ratioP1;P1;durP2;ratioP2;P2;SDS_P1;SDS_P2;PMS_P1;PMS_P2;Temp;Humidity;BMP_temperature;BMP_pressure;BME280_temperature;BME280_humidity;BME280_pressure;Samples;Min_cycle;Max_cycle;Signal;HPM_P1;HPM_P2
2022/03/30 00:01:58;;;;;;;18.40;6.93;;;;;;;12.93;48.88;95479.00;5046582;28;20214;-57
2022/03/30 00:04:25;;;;;;;19.00;6.93;;;;;;;12.93;49.32;95479.00;5042328;28;20203;-57
2022/03/30 00:06:51;;;;;;;15.30;6.50;;;;;;;12.96;48.53;95474.16;5042473;28;20214;-57
2022/03/30 00:09:18;;;;;;;18.77;7.60;;;;;;;12.94;48.75;95473.50;5042105;28;20204;-58
2022/03/30 00:11:45;;;;;;;18.73;6.77;;;;;;;12.99;48.90;95472.97;5042179;28;20218;-58
2022/03/30 00:14:14;;;;;;;23.17;7.50;;;;;;;13.05;46.93;95471.38;5041508;28;20233;-59
2022/03/30 00:16:41;;;;;;;15.50;6.80;;;;;;;13.06;47.47;95481.81;5042370;28;20194;-58
2022/03/30 00:19:07;;;;;;;14.30;5.93;;;;;;;13.05;47.65;95482.81;5041660;28;21279;-58
2022/03/30 00:21:34;;;;;;;15.93;6.67;;;;;;;13.10;47.07;95474.34;5041348;28;20211;-57
2022/03/30 00:24:00;;;;;;;22.93;7.23;;;;;;;13.13;46.58;95472.13;5040932;28;20260;-59
2022/03/30 00:26:27;;;;;;;22.53;7.43;;;;;;;13.14;46.95;95475.63;5041399;28;20694;-58
2022/03/30 00:28:53;;;;;;;21.03;6.20;;;;;;;13.16;47.36;95470.94;5041813;28;20191;-58
2022/03/30 00:31:21;;;;;;;23.97;7.00;;;;;;;13.16;47.45;95473.56;5041926;28;20203;-57
2022/03/30 00:33:48;;;;;;;21.13;6.93;;;;;;;13.15;47.77;95461.31;5041021;28;20509;-59
2022/03/30 00:36:14;;;;;;;20.47;7.33;;;;;;;13.18;47.90;95460.97;5042168;28;20286;-58
2022/03/30 00:38:41;;;;;;;19.73;6.90;;;;;;;13.13;49.35;95452.72;5047012;28;20200;-58
2022/03/30 00:41:07;;;;;;;23.27;7.30;;;;;;;13.10;50.69;95445.16;5068375;28;20212;-59
2022/03/30 00:43:34;;;;;;;14.83;6.20;;;;;;;13.09;50.29;95446.09;5070679;28;20211;-58
2022/03/30 00:46:01;;;;;;;18.83;7.07;;;;;;;13.05;49.60;95442.19;5063655;28;20199;-58
2022/03/30 00:48:28;;;;;;;22.57;7.17;;;;;;;12.98;50.05;95440.28;5051659;28;20216;-58
2022/03/30 00:50:55;;;;;;;22.63;7.40;;;;;;;12.94;50.68;95433.72;5044852;28;20215;-58
2022/03/30 00:53:21;;;;;;;19.60;7.07;;;;;;;12.94;49.94;95432.88;5045653;28;20204;-58
2022/03/30 00:55:48;;;;;;;21.00;7.17;;;;;;;12.93;50.24;95428.59;5044903;28;20479;-57
2022/03/30 00:58:15;;;;;;;22.80;7.70;;;;;;;12.93;50.08;95431.25;5045407;28;20192;-58
2022/03/30 01:00:41;;;;;;;23.57;7.47;;;;;;;12.89;50.14;95433.44;5045480;28;20218;-58
2022/03/30 01:03:08;;;;;;;23.20;6.67;;;;;;;12.86;50.99;95420.53;5044777;28;20215;-59
2022/03/30 01:05:36;;;;;;;24.17;7.63;;;;;;;12.76;52.30;95422.66;5045208;28;20200;-58
2022/03/30 01:08:02;;;;;;;16.50;7.03;;;;;;;12.78;51.97;95414.53;5045312;28;20210;-58
2022/03/30 01:10:29;;;;;;;22.60;7.43;;;;;;;12.68;53.60;95406.06;5045653;28;20239;-58
2022/03/30 01:12:55;;;;;;;22.07;7.77;;;;;;;12.65;53.69;95404.56;5045553;28;20559;-58
2022/03/30 01:15:22;;;;;;;22.20;7.27;;;;;;;12.65;54.00;95407.22;5045334;28;20239;-58
2022/03/30 01:17:49;;;;;;;21.37;6.87;;;;;;;12.62;53.48;95404.97;5044902;28;20679;-58
2022/03/30 01:20:18;;;;;;;25.07;7.33;;;;;;;12.62;52.67;95404.97;5045365;28;20632;-57
2022/03/30 01:22:46;;;;;;;21.30;7.07;;;;;;;12.63;52.78;95397.81;5045094;28;20207;-58
2022/03/30 01:25:12;;;;;;;19.70;6.70;;;;;;;12.65;52.32;95391.31;5043224;28;20234;-58
2022/03/30 01:27:39;;;;;;;22.07;6.57;;;;;;;12.62;52.93;95402.31;5044213;28;20195;-58
2022/03/30 01:32:57;;;;;;;24.50;8.63;;;;;;;12.61;52.89;95381.28;5044020;28;20203;-58
2022/03/30 01:35:24;;;;;;;26.57;7.47;;;;;;;12.56;55.61;95389.78;5045338;28;20555;-57
2022/03/30 01:37:52;;;;;;;28.40;8.03;;;;;;;12.53;57.37;95382.22;5044028;28;20230;-59
2022/03/30 01:40:19;;;;;;;20.47;7.20;;;;;;;12.52;58.84;95383.22;5045216;28;20203;-58
2022/03/30 01:42:45;;;;;;;24.10;7.23;;;;;;;12.49;59.66;95383.59;5044274;28;20204;-58
2022/03/30 01:45:15;;;;;;;25.93;7.30;;;;;;;12.35;65.25;95382.59;5045199;28;20192;-57
2022/03/30 01:47:41;;;;;;;27.30;7.83;;;;;;;12.20;67.92;95380.97;5044428;28;20214;-58
2022/03/30 01:50:10;;;;;;;22.30;7.40;;;;;;;12.17;67.09;95374.22;5043144;28;20203;-57
2022/03/30 01:52:37;;;;;;;25.80;8.17;;;;;;;12.18;66.66;95367.09;5043044;28;20231;-58
2022/03/30 01:55:05;;;;;;;22.60;7.33;;;;;;;12.16;67.51;95369.91;5044330;28;20247;-58
2022/03/30 01:57:32;;;;;;;24.20;7.93;;;;;;;12.12;68.62;95365.97;5045165;28;20203;-58
2022/03/30 01:59:59;;;;;;;27.77;7.90;;;;;;;12.08;69.11;95361.25;5045435;28;20204;-58
2022/03/30 02:02:27;;;;;;;26.30;8.63;;;;;;;12.11;68.97;95361.69;5044675;28;20222;-59
2022/03/30 02:04:53;;;;;;;23.90;8.20;;;;;;;12.06;70.53;95357.94;5045486;28;20207;-59
2022/03/30 02:07:20;;;;;;;22.60;8.10;;;;;;;11.98;71.55;95349.06;5046035;28;20199;-58
2022/03/30 02:09:48;;;;;;;19.23;7.30;;;;;;;12.01;71.19;95344.44;5044585;28;20203;-58
2022/03/30 02:12:16;;;;;;;29.27;8.40;;;;;;;11.88;74.42;95342.41;5046628;28;20695;-58
2022/03/30 02:14:42;;;;;;;23.87;8.20;;;;;;;11.93;73.86;95348.00;5050486;28;20218;-58
2022/03/30 02:17:09;;;;;;;31.17;8.43;;;;;;;11.89;71.17;95336.94;5050564;28;20203;-58
2022/03/30 02:19:37;;;;;;;27.43;8.27;;;;;;;11.93;71.56;95334.75;5055685;28;20210;-59
2022/03/30 02:22:03;;;;;;;21.50;7.87;;;;;;;11.92;70.66;95341.88;5052095;28;20195;-58
2022/03/30 02:24:30;;;;;;;24.17;7.63;;;;;;;11.97;64.78;95331.53;5051237;28;20202;-58
2022/03/30 02:26:56;;;;;;;18.30;7.00;;;;;;;12.07;66.58;95341.03;5054981;28;20230;-58
2022/03/30 02:29:24;;;;;;;19.53;7.50;;;;;;;12.06;65.08;95329.63;5063620;28;20207;-59
2022/03/30 02:31:50;;;;;;;24.13;7.20;;;;;;;12.14;62.86;95334.00;5061838;28;20231;-58
2022/03/30 02:34:17;;;;;;;18.93;6.77;;;;;;;12.19;64.79;95329.78;5050287;28;20200;-59
2022/03/30 02:36:43;;;;;;;19.63;6.90;;;;;;;12.24;62.39;95338.00;5042477;28;20207;-58
2022/03/30 02:39:11;;;;;;;25.03;6.97;;;;;;;12.36;58.47;95333.84;5042788;28;20207;-58
2022/03/30 02:41:38;;;;;;;27.67;7.83;;;;;;;12.48;56.79;95320.94;5043110;28;20211;-59
2022/03/30 02:44:05;;;;;;;22.47;7.00;;;;;;;12.55;57.43;95315.72;5043915;28;20211;-57
2022/03/30 02:46:33;;;;;;;19.90;6.93;;;;;;;12.57;59.16;95319.84;5044571;28;20215;-58
2022/03/30 02:48:59;;;;;;;20.40;6.50;;;;;;;12.70;56.33;95313.84;5043025;28;20218;-58
2022/03/30 02:51:27;;;;;;;16.37;5.90;;;;;;;12.71;57.12;95311.03;5042669;28;20211;-58
2022/03/30 02:53:54;;;;;;;17.93;6.73;;;;;;;12.73;58.43;95306.34;5043080;28;20285;-58
2022/03/30 02:56:21;;;;;;;23.80;7.40;;;;;;;12.91;56.74;95306.72;5042715;28;20218;-57
2022/03/30 02:58:48;;;;;;;23.40;6.93;;;;;;;12.96;55.13;95293.72;5042652;28;20200;-58
2022/03/30 03:01:15;;;;;;;19.27;6.90;;;;;;;12.96;54.48;95295.56;5042262;28;20199;-57
2022/03/30 03:03:43;;;;;;;14.17;6.30;;;;;;;12.92;55.98;95289.81;5043810;28;20200;-58
2022/03/30 03:06:09;;;;;;;25.53;7.13;;;;;;;12.84;56.62;95292.56;5042797;28;20200;-58
2022/03/30 03:08:36;;;;;;;14.23;5.67;;;;;;;12.85;57.21;95301.38;5042087;28;20830;-58
2022/03/30 03:11:02;;;;;;;20.00;6.43;;;;;;;12.86;56.37;95292.38;5042381;28;20557;-59
2022/03/30 03:13:30;;;;;;;19.50;6.67;;;;;;;12.83;57.09;95290.94;5042147;28;20525;-58
2022/03/30 03:15:57;;;;;;;18.13;6.30;;;;;;;12.87;56.13;95294.03;5042418;28;20224;-58
2022/03/30 03:18:23;;;;;;;23.83;6.10;;;;;;;12.81;55.69;95285.00;5043663;28;20214;-58
2022/03/30 03:20:51;;;;;;;22.57;5.80;;;;;;;12.83;55.98;95287.44;5041911;28;20211;-58
2022/03/30 03:23:18;;;;;;;17.43;6.10;;;;;;;12.87;55.40;95291.38;5042281;28;20202;-57
2022/03/30 03:25:44;;;;;;;18.03;5.53;;;;;;;12.82;56.11;95288.47;5041959;28;20230;-58
2022/03/30 03:28:12;;;;;;;14.33;6.63;;;;;;;12.81;56.12;95285.00;5042194;28;20210;-58
2022/03/30 03:30:39;;;;;;;19.53;6.83;;;;;;;12.76;56.39;95282.09;5042451;28;20200;-57
2022/03/30 03:33:07;;;;;;;17.20;6.43;;;;;;;12.74;56.36;95281.47;5040819;28;20664;-59
2022/03/30 03:35:34;;;;;;;20.67;6.03;;;;;;;12.73;56.87;95277.16;5042467;28;20222;-58
2022/03/30 03:38:03;;;;;;;22.67;6.93;;;;;;;12.70;58.20;95280.19;5041935;28;20207;-57
2022/03/30 03:40:30;;;;;;;16.93;5.97;;;;;;;12.74;55.85;95273.50;5042193;28;20628;-58
2022/03/30 03:42:57;;;;;;;16.83;5.90;;;;;;;12.71;55.95;95276.53;5042120;28;20210;-59
2022/03/30 03:45:23;;;;;;;17.70;5.77;;;;;;;12.67;56.40;95272.63;5042957;28;20207;-59
2022/03/30 03:47:51;;;;;;;20.77;6.30;;;;;;;12.68;56.08;95279.53;5042608;28;20203;-58
2022/03/30 03:50:18;;;;;;;19.73;5.80;;;;;;;12.73;55.54;95274.50;5043297;28;20210;-59
2022/03/30 03:52:44;;;;;;;20.40;5.80;;;;;;;12.76;55.32;95266.16;5043035;28;20206;-58
2022/03/30 03:55:12;;;;;;;23.27;5.73;;;;;;;12.69;55.95;95272.41;5043462;28;20224;-58
2022/03/30 03:57:39;;;;;;;21.90;6.03;;;;;;;12.65;56.72;95269.31;5042570;28;20499;-58
2022/03/30 04:00:08;;;;;;;17.43;6.20;;;;;;;12.63;56.42;95265.22;5042693;28;20199;-58
2022/03/30 04:02:34;;;;;;;15.57;5.80;;;;;;;12.68;56.19;95274.25;5042709;28;20212;-57
2022/03/30 04:05:02;;;;;;;15.63;5.47;;;;;;;12.66;56.53;95270.97;5042182;28;20218;-58
2022/03/30 04:07:29;;;;;;;19.00;6.27;;;;;;;12.65;57.48;95276.44;5042116;28;20215;-58
2022/03/30 04:09:56;;;;;;;14.13;5.40;;;;;;;12.61;57.51;95276.00;5042201;28;20203;-58
2022/03/30 04:12:23;;;;;;;12.40;5.50;;;;;;;12.62;57.38;95268.88;5038347;28;20233;-58
2022/03/30 04:14:50;;;;;;;18.63;5.67;;;;;;;12.59;58.10;95271.91;5060791;28;20214;-57
2022/03/30 04:17:16;;;;;;;16.70;6.17;;;;;;;12.61;57.26;95265.41;5064909;28;20214;-58
2022/03/30 04:19:43;;;;;;;18.10;5.93;;;;;;;12.63;57.21;95270.53;5062825;28;20203;-58
2022/03/30 04:22:09;;;;;;;17.83;6.50;;;;;;;12.66;57.04;95262.19;5046624;28;20222;-58
2022/03/30 04:24:35;;;;;;;18.00;5.90;;;;;;;12.65;56.77;95263.19;5046234;28;20199;-59
2022/03/30 04:27:02;;;;;;;13.47;5.43;;;;;;;12.66;56.78;95259.53;5045602;28;20525;-58
2022/03/30 04:29:30;;;;;;;15.50;5.77;;;;;;;12.67;57.63;95272.63;5046359;28;20277;-59
2022/03/30 04:31:59;;;;;;;14.60;5.33;;;;;;;12.66;57.57;95265.66;5046546;28;20206;-60
2022/03/30 04:34:25;;;;;;;13.53;5.20;;;;;;;12.67;57.45;95267.31;5046286;28;20266;-58
2022/03/30 04:36:51;;;;;;;16.80;5.80;;;;;;;12.65;58.09;95265.84;5048915;28;20234;-58
2022/03/30 04:39:18;;;;;;;13.53;5.53;;;;;;;12.64;58.58;95267.69;5059986;28;20207;-58
2022/03/30 04:41:44;;;;;;;9.90;5.10;;;;;;;12.63;58.01;95266.06;5051877;28;20199;-57
2022/03/30 04:44:11;;;;;;;16.87;5.70;;;;;;;12.60;58.68;95261.13;5047420;28;20207;-58
2022/03/30 04:46:39;;;;;;;13.93;6.13;;;;;;;12.56;59.45;95264.34;5046216;28;20202;-58
2022/03/30 04:49:06;;;;;;;18.13;5.43;;;;;;;12.52;60.05;95263.06;5053734;28;20203;-58
2022/03/30 04:51:33;;;;;;;18.20;5.37;;;;;;;12.48;60.58;95260.78;5055824;28;20196;-58
2022/03/30 04:53:59;;;;;;;12.47;5.33;;;;;;;12.46;61.17;95260.19;5053980;28;20204;-58
2022/03/30 04:56:26;;;;;;;14.47;5.87;;;;;;;12.55;59.59;95257.38;5043612;28;20556;-58
2022/03/30 04:58:54;;;;;;;15.83;6.43;;;;;;;12.52;59.41;95269.19;5045143;28;20536;-57
2022/03/30 05:01:20;;;;;;;18.13;5.73;;;;;;;12.55;59.44;95263.50;5044527;28;20207;-58
2022/03/30 05:03:48;;;;;;;19.90;6.60;;;;;;;12.57;59.66;95264.16;5046486;28;20218;-55
2022/03/30 05:06:15;;;;;;;13.87;4.83;;;;;;;12.51;60.08;95248.16;5045361;28;20211;-56
2022/03/30 05:08:41;;;;;;;17.33;5.80;;;;;;;12.52;61.30;95252.47;5045860;28;20213;-56
2022/03/30 05:11:08;;;;;;;19.27;5.70;;;;;;;12.48;61.85;95246.72;5045897;28;20680;-56
2022/03/30 05:13:34;;;;;;;17.67;6.23;;;;;;;12.35;63.59;95246.59;5042196;28;20207;-55
2022/03/30 05:16:01;;;;;;;17.27;6.07;;;;;;;12.32;64.50;95244.31;5044428;28;20231;-57
2022/03/30 05:18:27;;;;;;;17.60;6.03;;;;;;;12.24;64.72;95239.13;5044963;28;20219;-56
2022/03/30 05:20:55;;;;;;;14.60;6.00;;;;;;;12.13;64.14;95242.25;5044814;28;20203;-56
2022/03/30 05:23:21;;;;;;;19.63;6.50;;;;;;;12.16;63.96;95241.88;5044637;28;20539;-56
2022/03/30 05:25:48;;;;;;;15.57;5.43;;;;;;;12.17;62.94;95238.22;5043498;28;20223;-56
2022/03/30 05:28:14;;;;;;;16.37;5.80;;;;;;;12.06;63.83;95238.72;5044603;28;20625;-56
2022/03/30 05:30:41;;;;;;;19.73;6.20;;;;;;;12.03;64.36;95236.44;5043963;28;20222;-55
2022/03/30 05:33:08;;;;;;;17.37;5.53;;;;;;;11.96;64.55;95244.31;5045076;28;20195;-56
2022/03/30 05:35:34;;;;;;;13.17;5.13;;;;;;;12.00;64.39;95247.41;5045349;28;20247;-55
2022/03/30 05:38:02;;;;;;;14.50;5.33;;;;;;;12.01;65.15;95246.41;5043814;28;20227;-55
2022/03/30 05:40:29;;;;;;;15.03;6.00;;;;;;;11.98;67.84;95244.94;5044946;28;20223;-54
2022/03/30 05:42:55;;;;;;;13.17;5.67;;;;;;;11.89;66.62;95248.72;5044175;28;20199;-54
2022/03/30 05:45:22;;;;;;;15.43;5.80;;;;;;;11.90;67.30;95237.91;5044557;28;20269;-56
2022/03/30 05:47:51;;;;;;;15.73;5.97;;;;;;;11.85;68.29;95240.31;5044343;28;20555;-55
2022/03/30 05:50:18;;;;;;;19.40;6.33;;;;;;;12.04;66.15;95238.09;5044977;28;20765;-54
2022/03/30 05:52:44;;;;;;;14.77;6.17;;;;;;;12.03;66.58;95237.25;5044758;28;20265;-55
2022/03/30 05:55:12;;;;;;;16.50;5.77;;;;;;;11.92;66.88;95241.22;5054248;28;20225;-55
2022/03/30 05:57:39;;;;;;;15.13;5.13;;;;;;;11.91;69.56;95244.84;5055488;28;20208;-55
2022/03/30 06:00:07;;;;;;;17.33;5.43;;;;;;;11.92;68.79;95250.97;5045279;28;20215;-55
2022/03/30 06:02:34;;;;;;;17.67;5.60;;;;;;;11.94;68.33;95255.06;5043422;28;20646;-55
2022/03/30 06:05:00;;;;;;;18.50;6.33;;;;;;;11.91;69.74;95255.44;5045383;28;20628;-55
2022/03/30 06:07:26;;;;;;;14.87;5.67;;;;;;;11.86;69.56;95241.97;5043619;28;20239;-56
2022/03/30 06:09:53;;;;;;;20.47;5.83;;;;;;;11.87;69.05;95248.06;5043406;28;20799;-56
2022/03/30 06:12:23;;;;;;;14.27;5.87;;;;;;;11.77;71.40;95243.06;5042909;28;20203;-56
2022/03/30 06:14:50;;;;;;;17.27;6.17;;;;;;;11.66;72.94;95246.13;5043861;28;20219;-56
2022/03/30 06:17:17;;;;;;;13.50;5.37;;;;;;;11.72;73.39;95240.16;5042819;28;20227;-55
2022/03/30 06:19:45;;;;;;;12.67;5.77;;;;;;;11.64;72.92;95242.84;5044241;28;20217;-56
2022/03/30 06:22:12;;;;;;;16.30;6.17;;;;;;;11.72;72.96;95240.16;5043721;28;20680;-56
2022/03/30 06:24:39;;;;;;;18.43;5.73;;;;;;;11.75;70.94;95244.25;5043461;28;20207;-55
2022/03/30 06:27:06;;;;;;;13.20;5.03;;;;;;;11.79;70.70;95243.69;5043576;28;20228;-58
2022/03/30 06:29:35;;;;;;;15.17;5.83;;;;;;;11.74;69.27;95246.06;5045006;28;20206;-57
2022/03/30 06:32:02;;;;;;;13.30;5.83;;;;;;;11.66;72.34;95251.41;5043408;28;20207;-57
2022/03/30 06:34:31;;;;;;;16.23;6.33;;;;;;;11.60;71.83;95252.16;5043218;28;20207;-58
2022/03/30 06:36:58;;;;;;;14.03;5.70;;;;;;;11.66;70.78;95250.59;5042948;28;20227;-57
2022/03/30 06:39:24;;;;;;;11.97;4.97;;;;;;;11.75;67.13;95246.91;5043793;28;20195;-59
2022/03/30 06:41:51;;;;;;;14.13;5.83;;;;;;;11.70;70.43;95242.09;5043960;28;20226;-58
2022/03/30 06:44:17;;;;;;;17.87;6.90;;;;;;;11.75;68.75;95247.72;5043984;28;20582;-56
2022/03/30 06:46:46;;;;;;;13.63;5.70;;;;;;;11.83;68.31;95242.31;5043619;28;20214;-57
2022/03/30 06:49:12;;;;;;;18.23;5.90;;;;;;;11.86;66.66;95249.09;5043506;28;20231;-57
2022/03/30 06:51:39;;;;;;;14.70;6.43;;;;;;;11.79;68.75;95249.00;5042924;28;20402;-58
2022/03/30 06:54:06;;;;;;;21.77;6.23;;;;;;;11.82;66.91;95251.28;5042832;28;20207;-57
2022/03/30 06:56:33;;;;;;;14.97;6.27;;;;;;;11.83;67.15;95247.59;5043194;28;20223;-57
2022/03/30 06:58:59;;;;;;;19.57;6.70;;;;;;;11.92;66.83;95251.81;5042713;28;20204;-57
2022/03/30 07:01:26;;;;;;;19.27;7.40;;;;;;;11.90;66.58;95247.72;5044288;28;20199;-58
2022/03/30 07:03:54;;;;;;;14.33;5.20;;;;;;;11.91;66.77;95247.50;5043960;28;20200;-58
2022/03/30 07:06:21;;;;;;;17.93;6.27;;;;;;;11.91;67.94;95255.44;5043077;28;20214;-57
2022/03/30 07:11:32;;;;;;;13.70;5.87;;;;;;;11.96;67.32;95252.25;5067420;28;20207;-58
2022/03/30 07:13:58;;;;;;;17.83;6.10;;;;;;;11.93;67.99;95248.16;5068116;28;20187;-58
2022/03/30 07:16:26;;;;;;;18.33;6.33;;;;;;;11.98;67.22;95242.28;5044234;28;20603;-57
2022/03/30 07:18:55;;;;;;;16.60;6.53;;;;;;;12.02;68.01;95245.38;5042758;28;20222;-57
2022/03/30 07:21:22;;;;;;;16.23;6.10;;;;;;;12.02;68.53;95242.72;5042722;28;20262;-57
2022/03/30 07:23:48;;;;;;;18.30;7.27;;;;;;;12.04;69.11;95243.38;5042867;28;20207;-57
2022/03/30 07:26:15;;;;;;;14.53;7.10;;;;;;;12.00;68.86;95242.09;5042123;28;20243;-57
2022/03/30 07:28:41;;;;;;;16.67;5.97;;;;;;;11.92;68.84;95245.69;5042983;28;20204;-57
2022/03/30 07:31:08;;;;;;;13.87;5.93;;;;;;;11.89;71.13;95249.53;5051567;28;20184;-57
2022/03/30 07:33:35;;;;;;;14.80;6.20;;;;;;;11.97;70.22;95253.91;5067611;28;20188;-57
2022/03/30 07:36:03;;;;;;;14.60;6.13;;;;;;;11.93;69.07;95242.84;5069875;28;20246;-57
2022/03/30 07:38:30;;;;;;;15.27;6.00;;;;;;;11.94;69.10;95248.94;5044974;28;20219;-58
2022/03/30 07:41:00;;;;;;;14.43;5.83;;;;;;;11.95;69.85;95242.66;5042213;28;20206;-57
2022/03/30 07:43:26;;;;;;;15.00;6.17;;;;;;;11.88;72.25;95249.69;5042879;28;20587;-58
2022/03/30 07:45:53;;;;;;;13.73;6.50;;;;;;;11.73;73.75;95247.06;5042435;28;20200;-58
2022/03/30 07:48:20;;;;;;;23.90;7.10;;;;;;;11.71;72.48;95254.38;5042440;28;20302;-58
2022/03/30 07:50:47;;;;;;;18.60;6.43;;;;;;;11.71;72.17;95249.09;5041338;28;20207;-57
2022/03/30 07:53:15;;;;;;;18.63;7.13;;;;;;;11.59;74.41;95255.81;5042078;28;20210;-57
2022/03/30 07:55:43;;;;;;;20.97;6.07;;;;;;;11.63;74.61;95262.38;5041996;28;20203;-57
2022/03/30 07:58:09;;;;;;;13.27;5.97;;;;;;;11.74;73.77;95258.47;5042727;28;20224;-56
2022/03/30 08:00:36;;;;;;;16.67;6.07;;;;;;;11.70;73.13;95262.47;5042097;28;20210;-57
2022/03/30 08:03:03;;;;;;;18.03;6.73;;;;;;;11.62;74.35;95258.09;5043397;28;20212;-57
2022/03/30 08:05:30;;;;;;;12.10;6.40;;;;;;;11.59;76.39;95260.28;5042251;28;20755;-56
2022/03/30 08:07:56;;;;;;;16.20;6.43;;;;;;;11.61;75.82;95259.13;5042142;28;20211;-57
2022/03/30 08:10:26;;;;;;;17.40;5.60;;;;;;;11.61;74.92;95269.69;5040786;28;20651;-57
2022/03/30 08:12:53;;;;;;;14.57;5.83;;;;;;;11.52;75.96;95254.91;5042338;28;20201;-58
2022/03/30 08:15:21;;;;;;;13.40;6.13;;;;;;;11.46;76.56;95261.75;5042713;28;20210;-57
2022/03/30 08:17:50;;;;;;;20.93;6.37;;;;;;;11.43;76.65;95261.28;5041868;28;20306;-57
2022/03/30 08:22:56;;;;;;;12.80;7.00;;;;;;;11.39;79.79;95271.44;5041744;28;20199;-56
2022/03/30 08:25:24;;;;;;;11.47;5.73;;;;;;;11.34;79.21;95270.31;5041618;28;20243;-57
2022/03/30 08:27:51;;;;;;;15.43;6.17;;;;;;;11.36;79.00;95278.91;5041382;28;20218;-57
2022/03/30 08:30:18;;;;;;;16.47;6.07;;;;;;;11.30;80.59;95279.63;5042011;28;20207;-58
2022/03/30 08:32:44;;;;;;;12.60;6.20;;;;;;;11.20;79.53;95276.41;5042658;28;20235;-57
2022/03/30 08:35:13;;;;;;;20.03;6.67;;;;;;;11.24;79.73;95281.16;5042596;28;20329;-57
2022/03/30 08:37:39;;;;;;;11.73;6.10;;;;;;;11.20;80.85;95276.41;5046151;28;20317;-57
2022/03/30 08:40:07;;;;;;;11.67;6.07;;;;;;;11.14;82.12;95277.13;5046200;28;20196;-58
2022/03/30 08:42:36;;;;;;;16.67;6.23;;;;;;;11.14;82.50;95279.78;5044781;28;20222;-58
2022/03/30 08:45:03;;;;;;;15.87;7.13;;;;;;;11.16;84.79;95285.72;5042532;28;20289;-57
2022/03/30 08:47:30;;;;;;;13.17;6.87;;;;;;;11.12;83.84;95281.78;5041805;28;20238;-58
2022/03/30 08:49:57;;;;;;;15.23;5.97;;;;;;;11.15;84.00;95284.06;5041013;28;20228;-57
2022/03/30 08:52:23;;;;;;;12.67;6.50;;;;;;;11.22;84.37;95285.81;5041467;28;20204;-58
2022/03/30 08:54:51;;;;;;;15.90;6.63;;;;;;;11.20;85.05;95286.97;5042828;28;20266;-57
2022/03/30 08:57:18;;;;;;;17.90;6.30;;;;;;;11.20;85.00;95289.63;5042507;28;20690;-57
2022/03/30 08:59:59;;;;;;;17.63;6.93;;;;;;;11.20;83.92;95286.97;5045786;28;20195;-57
2022/03/30 09:02:34;;;;;;;17.27;7.00;;;;;;;11.09;84.85;95285.59;5047353;28;20210;-57
2022/03/30 09:05:12;;;;;;;18.57;6.53;;;;;;;11.08;85.93;95283.97;5045874;28;20203;-58
2022/03/30 09:07:39;;;;;;;16.37;6.77;;;;;;;11.01;87.91;95284.84;5046328;28;20591;-57
2022/03/30 09:10:12;;;;;;;15.30;6.80;;;;;;;11.09;87.63;95285.59;5047136;28;20207;-57
2022/03/30 09:12:39;;;;;;;14.27;7.27;;;;;;;11.04;87.74;95285.31;5047785;28;20195;-57
2022/03/30 09:15:12;;;;;;;16.80;6.77;;;;;;;11.14;87.41;95282.41;5049695;28;20215;-58
2022/03/30 09:17:39;;;;;;;14.57;7.00;;;;;;;11.05;87.00;95278.22;5049510;28;20225;-57
2022/03/30 09:20:06;;;;;;;15.70;6.20;;;;;;;11.05;90.59;95286.16;5051101;28;20608;-58
2022/03/30 09:22:33;;;;;;;17.00;6.73;;;;;;;11.18;84.26;95275.78;5047209;28;20226;-57
2022/03/30 09:25:02;;;;;;;15.27;6.47;;;;;;;11.14;86.63;95277.94;5046157;28;20232;-58
2022/03/30 09:27:29;;;;;;;15.77;6.33;;;;;;;11.15;87.35;95276.13;5047119;28;20276;-56
2022/03/30 09:29:55;;;;;;;12.47;5.80;;;;;;;11.13;83.75;95271.00;5055937;28;20183;-57
2022/03/30 09:32:23;;;;;;;15.13;6.33;;;;;;;11.09;85.97;95274.22;5065980;28;20183;-57
2022/03/30 09:34:51;;;;;;;12.63;6.20;;;;;;;11.08;84.73;95261.97;5060272;28;20214;-57
2022/03/30 09:37:18;;;;;;;16.47;6.20;;;;;;;11.07;85.08;95271.72;5045177;28;20238;-56
2022/03/30 09:39:46;;;;;;;15.57;6.40;;;;;;;11.20;85.06;95265.81;5045191;28;20199;-56
2022/03/30 09:42:14;;;;;;;12.67;6.37;;;;;;;11.21;83.94;95265.66;5044443;28;20199;-57
2022/03/30 09:44:48;;;;;;;12.17;6.57;;;;;;;11.17;84.15;95260.88;5045143;28;20252;-56
2022/03/30 09:47:18;;;;;;;14.80;5.87;;;;;;;11.17;86.74;95266.19;5043956;28;20198;-57
2022/03/30 09:49:47;;;;;;;14.20;6.40;;;;;;;11.34;85.97;95259.72;5044541;28;20225;-58
2022/03/30 09:52:17;;;;;;;14.93;6.47;;;;;;;11.38;85.64;95253.06;5044837;28;20203;-58
2022/03/30 09:54:49;;;;;;;11.87;6.17;;;;;;;11.46;84.92;95258.28;5043592;28;20199;-58
2022/03/30 09:57:19;;;;;;;15.30;6.50;;;;;;;11.51;88.29;95258.56;5043645;28;20216;-56
2022/03/30 10:00:14;;;;;;;17.33;6.33;;;;;;;11.49;86.40;95250.78;5043960;28;20194;-57
2022/03/30 10:02:42;;;;;;;13.10;6.43;;;;;;;11.57;87.77;95255.19;5043237;28;20196;-58
2022/03/30 10:05:12;;;;;;;13.33;6.47;;;;;;;11.60;87.34;95246.88;5043755;28;20204;-59
2022/03/30 10:07:39;;;;;;;15.07;7.10;;;;;;;11.66;86.33;95243.47;5043356;28;20207;-61
2022/03/30 10:10:09;;;;;;;17.93;6.90;;;;;;;11.68;86.84;95246.78;5043089;28;20207;-57
2022/03/30 10:12:36;;;;;;;14.97;6.60;;;;;;;11.58;84.79;95246.25;5043270;28;20199;-64
2022/03/30 10:15:03;;;;;;;13.37;5.57;;;;;;;11.69;84.79;95248.41;5044636;28;20218;-63
2022/03/30 10:17:29;;;;;;;14.33;6.30;;;;;;;11.59;86.46;95242.56;5042947;28;20233;-57
2022/03/30 10:19:58;;;;;;;12.30;5.90;;;;;;;11.63;83.97;95254.44;5044226;28;20231;-54
2022/03/30 10:22:48;;;;;;;10.10;5.33;;;;;;;11.78;82.41;95247.34;5043466;28;20208;-54
2022/03/30 10:25:27;;;;;;;10.83;5.30;;;;;;;11.76;81.39;95230.00;5043960;28;20243;-55
2022/03/30 10:27:56;;;;;;;10.73;5.50;;;;;;;11.82;83.19;95242.50;5043573;28;20222;-54
2022/03/30 10:30:26;;;;;;;11.00;5.80;;;;;;;11.84;82.20;95222.75;5043049;28;20222;-53
2022/03/30 10:32:57;;;;;;;11.17;5.60;;;;;;;11.85;85.06;95219.13;5042857;28;20218;-52
2022/03/30 10:35:37;;;;;;;10.53;5.77;;;;;;;12.00;86.07;95220.91;5044122;28;20528;-55
2022/03/30 10:38:07;;;;;;;10.33;5.30;;;;;;;12.07;83.31;95221.81;5043573;28;20203;-59
2022/03/30 10:40:33;;;;;;;11.93;5.80;;;;;;;11.96;84.68;95215.16;5043576;28;20215;-53
2022/03/30 10:43:08;;;;;;;10.60;5.10;;;;;;;12.23;83.09;95209.16;5043127;28;21017;-53
2022/03/30 10:45:41;;;;;;;10.77;5.47;;;;;;;12.27;79.88;95207.75;5043762;28;20207;-56
2022/03/30 10:48:10;;;;;;;11.17;5.37;;;;;;;12.35;80.66;95198.88;5043293;28;20194;-55
2022/03/30 10:50:39;;;;;;;12.27;5.43;;;;;;;12.36;82.95;95195.22;5042619;28;20552;-54
2022/03/30 10:53:43;;;;;;;11.77;5.23;;;;;;;12.45;82.85;95205.50;5042420;28;20218;-57
2022/03/30 10:56:32;;;;;;;8.57;4.83;;;;;;;12.66;82.54;95201.19;5043012;28;20269;-55
2022/03/30 10:59:10;;;;;;;11.53;5.10;;;;;;;12.86;80.19;95194.22;5043527;28;20664;-56
2022/03/30 11:01:38;;;;;;;9.53;4.67;;;;;;;12.76;79.35;95191.06;5042896;28;20222;-56
2022/03/30 11:04:06;;;;;;;7.93;4.23;;;;;;;12.92;80.56;95191.63;5043065;28;20207;-57
2022/03/30 11:06:35;;;;;;;8.57;4.80;;;;;;;13.24;81.74;95194.75;5042463;28;20216;-57
2022/03/30 11:09:05;;;;;;;11.37;4.90;;;;;;;13.70;78.35;95185.19;5042367;28;20635;-58
2022/03/30 11:11:34;;;;;;;7.60;4.63;;;;;;;14.01;76.50;95181.22;5042364;28;20264;-55
2022/03/30 11:14:26;;;;;;;11.90;4.83;;;;;;;14.09;76.73;95183.69;5043108;28;20206;-57
2022/03/30 11:16:54;;;;;;;9.53;4.43;;;;;;;14.18;73.77;95185.97;5043475;28;20195;-57
2022/03/30 11:19:22;;;;;;;7.23;3.93;;;;;;;14.54;71.98;95183.00;5042864;28;20586;-56
2022/03/30 11:21:57;;;;;;;6.87;4.17;;;;;;;14.52;73.21;95174.41;5042202;28;20204;-58
2022/03/30 11:24:25;;;;;;;5.63;3.90;;;;;;;14.60;71.75;95170.72;5042145;28;20241;-58
2022/03/30 11:27:23;;;;;;;12.57;4.70;;;;;;;14.59;73.65;95161.94;5042214;28;20318;-55
2022/03/30 11:29:55;;;;;;;11.47;3.80;;;;;;;14.44;70.23;95166.63;5043550;28;20286;-57
2022/03/30 11:32:57;;;;;;;9.47;4.27;;;;;;;14.17;71.58;95154.28;5042399;28;20674;-58
2022/03/30 11:35:28;;;;;;;7.90;4.37;;;;;;;13.75;75.27;95156.19;5044575;28;20264;-57
2022/03/30 11:38:04;;;;;;;9.97;4.33;;;;;;;13.76;76.53;95157.00;5042510;28;20211;-57
2022/03/30 11:40:35;;;;;;;8.63;4.17;;;;;;;13.69;75.14;95161.47;5042472;28;20286;-57